createdAt,value
2022-08-27T00:00:29.462Z,8.27
2022-08-27T00:02:47.439Z,8.23
2022-08-27T00:05:05.775Z,8.25
2022-08-27T00:07:23.565Z,7.40
2022-08-27T00:09:41.712Z,7.88
2022-08-27T00:11:59.927Z,7.82
2022-08-27T00:14:17.949Z,8.38
2022-08-27T00:16:35.766Z,8.23
2022-08-27T00:18:55.078Z,7.93
2022-08-27T00:21:13.400Z,8.18
2022-08-27T00:23:31.783Z,8.43
2022-08-27T00:25:49.538Z,7.95
2022-08-27T00:28:07.290Z,8.13
2022-08-27T00:30:25.198Z,8.20
2022-08-27T00:32:43.546Z,8.38
2022-08-27T00:35:01.428Z,9.18
2022-08-27T00:37:19.768Z,8.15
2022-08-27T00:39:37.599Z,8.32
2022-08-27T00:41:55.393Z,8.10
2022-08-27T00:44:13.687Z,7.95
2022-08-27T00:46:35.795Z,9.15
2022-08-27T00:48:55.390Z,8.07
2022-08-27T00:51:13.185Z,7.95
2022-08-27T00:53:33.350Z,7.10
2022-08-27T00:56:01.151Z,8.20
2022-08-27T00:58:26.604Z,7.97
2022-08-27T01:00:45.438Z,8.40
2022-08-27T01:03:03.782Z,7.90
2022-08-27T01:05:25.409Z,8.18
2022-08-27T01:07:44.381Z,8.80
2022-08-27T01:10:03.160Z,8.20
2022-08-27T01:12:20.972Z,7.88
2022-08-27T01:14:40.129Z,8.00
2022-08-27T01:16:58.906Z,8.57
2022-08-27T01:19:28.025Z,7.75
2022-08-27T01:21:53.417Z,7.75
2022-08-27T01:24:26.570Z,8.50
2022-08-27T01:26:44.452Z,8.40
2022-08-27T01:29:02.452Z,8.00
2022-08-27T01:31:20.411Z,8.40
2022-08-27T01:33:39.015Z,8.63
2022-08-27T01:35:56.819Z,8.40
2022-08-27T01:38:30.309Z,8.40
2022-08-27T01:40:48.901Z,8.80
2022-08-27T01:43:06.717Z,9.30
2022-08-27T01:45:26.319Z,8.98
2022-08-27T01:47:44.075Z,8.85
2022-08-27T01:50:02.677Z,9.02
2022-08-27T01:52:21.972Z,7.88
2022-08-27T01:54:39.739Z,9.10
2022-08-27T01:56:57.560Z,8.30
2022-08-27T01:59:18.006Z,8.35
2022-08-27T02:01:35.969Z,8.73
2022-08-27T02:03:53.756Z,8.85
2022-08-27T02:06:12.461Z,9.18
2022-08-27T02:08:31.469Z,8.23
2022-08-27T02:10:49.960Z,8.95
2022-08-27T02:13:08.447Z,8.75
2022-08-27T02:15:26.552Z,8.32
2022-08-27T02:17:44.285Z,8.35
2022-08-27T02:20:02.403Z,9.15
2022-08-27T02:22:20.187Z,8.95
2022-08-27T02:24:38.021Z,8.75
2022-08-27T02:26:55.840Z,8.48
2022-08-27T02:29:14.060Z,8.80
2022-08-27T02:31:31.939Z,8.05
2022-08-27T02:33:49.980Z,9.07
2022-08-27T02:36:08.852Z,8.38
2022-08-27T02:38:26.830Z,9.13
2022-08-27T02:40:44.654Z,8.68
2022-08-27T02:43:02.448Z,9.00
2022-08-27T02:45:20.828Z,8.70
2022-08-27T02:47:38.798Z,7.95
2022-08-27T02:49:56.807Z,8.30
2022-08-27T02:52:14.677Z,9.25
2022-08-27T02:54:33.544Z,8.93
2022-08-27T02:56:52.455Z,8.13
2022-08-27T02:59:10.444Z,9.00
2022-08-27T03:01:29.075Z,8.98
2022-08-27T03:03:47.228Z,8.80
2022-08-27T03:06:05.317Z,8.88
2022-08-27T03:08:23.707Z,8.43
2022-08-27T03:10:41.988Z,8.73
2022-08-27T03:12:59.831Z,8.35
2022-08-27T03:15:18.772Z,8.68
2022-08-27T03:17:55.420Z,9.40
2022-08-27T03:20:13.278Z,8.73
2022-08-27T03:22:31.034Z,8.75
2022-08-27T03:24:48.907Z,8.85
2022-08-27T03:27:06.729Z,9.43
2022-08-27T03:29:24.546Z,8.65
2022-08-27T03:31:42.926Z,9.10
2022-08-27T03:34:02.462Z,8.82
2022-08-27T03:36:20.252Z,9.35
2022-08-27T03:38:38.139Z,9.40
2022-08-27T03:40:56.314Z,9.35
2022-08-27T03:43:14.765Z,8.48
2022-08-27T03:45:32.608Z,9.40
2022-08-27T03:48:11.291Z,9.02
2022-08-27T03:50:29.174Z,9.50
2022-08-27T03:52:47.315Z,8.98
2022-08-27T03:55:06.991Z,8.35
2022-08-27T03:57:24.695Z,8.45
2022-08-27T03:59:42.504Z,8.80
2022-08-27T04:02:00.862Z,9.20
2022-08-27T04:04:18.687Z,9.57
2022-08-27T04:06:36.450Z,9.02
2022-08-27T04:08:54.203Z,9.38
2022-08-27T04:11:11.991Z,8.68
2022-08-27T04:13:29.761Z,9.07
2022-08-27T04:15:48.641Z,8.90
2022-08-27T04:18:06.659Z,8.90
2022-08-27T04:20:34.966Z,9.48
2022-08-27T04:22:53.613Z,8.82
2022-08-27T04:25:11.680Z,9.45
2022-08-27T04:27:32.012Z,8.85
2022-08-27T04:29:54.686Z,9.20
2022-08-27T04:32:12.779Z,8.70
2022-08-27T04:34:30.996Z,9.15
2022-08-27T04:36:49.099Z,9.02
2022-08-27T04:39:06.863Z,8.48
2022-08-27T04:41:26.751Z,9.25
2022-08-27T04:43:44.575Z,9.70
2022-08-27T04:46:02.413Z,10.18
2022-08-27T04:48:20.295Z,9.07
2022-08-27T04:50:45.948Z,10.05
2022-08-27T04:53:04.247Z,9.07
2022-08-27T04:55:22.641Z,8.88
2022-08-27T04:57:40.863Z,9.63
2022-08-27T04:59:58.642Z,9.70
2022-08-27T05:02:16.671Z,10.52
2022-08-27T05:04:35.900Z,9.60
2022-08-27T05:06:55.043Z,9.65
2022-08-27T05:09:16.895Z,9.90
2022-08-27T05:11:36.502Z,9.45
2022-08-27T05:13:54.319Z,10.10
2022-08-27T05:16:16.642Z,10.48
2022-08-27T05:18:42.085Z,10.15
2022-08-27T05:21:06.733Z,9.98
2022-08-27T05:23:29.719Z,10.75
2022-08-27T05:25:48.330Z,9.75
2022-08-27T05:28:06.136Z,9.57
2022-08-27T05:30:23.858Z,10.00
2022-08-27T05:32:41.754Z,9.40
2022-08-27T05:34:59.993Z,9.98
2022-08-27T05:37:17.785Z,10.43
2022-08-27T05:39:35.561Z,10.10
2022-08-27T05:41:56.953Z,10.40
2022-08-27T05:46:54.902Z,10.10
2022-08-27T05:49:12.914Z,9.77
2022-08-27T05:51:34.832Z,9.93
2022-08-27T05:53:55.318Z,9.90
2022-08-27T05:56:14.275Z,10.85
2022-08-27T05:58:51.092Z,9.88
2022-08-27T06:01:10.415Z,10.68
2022-08-27T06:03:28.391Z,10.40
2022-08-27T06:05:46.165Z,10.93
2022-08-27T06:08:04.116Z,10.55
2022-08-27T06:10:21.890Z,10.95
2022-08-27T06:12:39.819Z,10.85
2022-08-27T06:14:57.628Z,10.63
2022-08-27T06:17:15.318Z,11.07
2022-08-27T06:19:34.829Z,10.20
2022-08-27T06:22:01.310Z,11.02
2022-08-27T06:24:27.939Z,11.23
2022-08-27T06:26:46.077Z,10.52
2022-08-27T06:29:08.053Z,9.82
2022-08-27T06:31:27.593Z,10.52
2022-08-27T06:33:46.247Z,10.10
2022-08-27T06:36:08.573Z,10.88
2022-08-27T06:38:27.142Z,10.23
2022-08-27T06:40:44.943Z,10.85
2022-08-27T06:43:02.687Z,9.55
2022-08-27T06:45:20.652Z,10.50
2022-08-27T06:47:38.520Z,10.70
2022-08-27T06:49:57.680Z,9.02
2022-08-27T06:52:16.531Z,10.40
2022-08-27T06:54:34.413Z,9.88
2022-08-27T06:56:52.227Z,10.13
2022-08-27T06:59:12.088Z,10.40
2022-08-27T07:01:31.801Z,9.07
2022-08-27T07:03:50.802Z,10.10
2022-08-27T07:06:09.472Z,10.02
2022-08-27T07:08:27.207Z,9.73
2022-08-27T07:10:45.020Z,10.18
2022-08-27T07:13:02.774Z,9.75
2022-08-27T07:15:22.154Z,9.30
2022-08-27T07:17:44.772Z,9.63
2022-08-27T07:20:02.716Z,9.57
2022-08-27T07:22:20.490Z,9.23
2022-08-27T07:24:38.314Z,9.35
2022-08-27T07:26:56.063Z,8.95
2022-08-27T07:29:15.494Z,9.32
2022-08-27T07:31:35.747Z,8.80
2022-08-27T07:33:53.701Z,9.23
2022-08-27T07:36:12.463Z,9.25
2022-08-27T07:38:30.355Z,8.93
2022-08-27T07:40:48.187Z,10.02
2022-08-27T07:43:25.715Z,9.07
2022-08-27T07:45:48.148Z,8.93
2022-08-27T07:48:05.948Z,8.43
2022-08-27T07:50:24.070Z,8.93
2022-08-27T07:52:43.931Z,8.75
2022-08-27T07:55:01.741Z,8.70
2022-08-27T07:57:19.511Z,8.60
2022-08-27T07:59:38.442Z,8.95
2022-08-27T08:01:57.224Z,8.90
2022-08-27T08:04:19.978Z,8.88
2022-08-27T08:06:39.627Z,9.00
2022-08-27T08:08:57.421Z,9.00
2022-08-27T08:11:16.741Z,9.00
2022-08-27T08:13:34.650Z,9.02
2022-08-27T08:15:52.747Z,8.25
2022-08-27T08:18:11.997Z,9.13
2022-08-27T08:20:56.617Z,9.18
2022-08-27T08:23:09.747Z,8.80
2022-08-27T08:25:28.419Z,8.93
2022-08-27T08:27:52.377Z,8.82
2022-08-27T08:30:11.035Z,8.43
2022-08-27T08:32:29.799Z,8.55
2022-08-27T08:34:48.056Z,8.18
2022-08-27T08:37:07.095Z,8.60
2022-08-27T08:39:25.342Z,9.15
2022-08-27T08:41:44.255Z,8.88
2022-08-27T08:44:05.828Z,9.32
2022-08-27T08:46:56.515Z,8.77
2022-08-27T08:49:26.495Z,9.07
2022-08-27T08:51:44.638Z,9.02
2022-08-27T08:54:07.712Z,8.48
2022-08-27T08:56:29.269Z,8.25
2022-08-27T08:58:50.316Z,9.20
2022-08-27T09:01:09.371Z,8.23
2022-08-27T09:03:27.864Z,9.27
2022-08-27T09:05:49.645Z,8.20
2022-08-27T09:10:51.481Z,8.38
2022-08-27T09:13:21.996Z,8.88
2022-08-27T09:15:40.136Z,9.13
2022-08-27T09:18:14.306Z,8.25
2022-08-27T09:20:32.672Z,8.30
2022-08-27T09:23:06.212Z,8.85
2022-08-27T09:25:33.149Z,8.88
2022-08-27T09:27:52.707Z,9.23
2022-08-27T09:30:20.740Z,8.52
2022-08-27T09:32:39.417Z,8.25
2022-08-27T09:35:02.773Z,8.15
2022-08-27T09:37:34.039Z,8.90
2022-08-27T09:39:54.746Z,8.18
2022-08-27T09:42:24.139Z,7.70
2022-08-27T09:44:51.548Z,8.00
2022-08-27T09:47:14.477Z,8.13
2022-08-27T09:49:35.324Z,7.80
2022-08-27T09:51:54.452Z,8.50
2022-08-27T09:54:12.956Z,8.32
2022-08-27T09:56:30.862Z,7.90
2022-08-27T09:58:51.998Z,8.52
2022-08-27T10:01:30.561Z,7.70
2022-08-27T10:03:49.795Z,7.97
2022-08-27T10:06:09.026Z,8.43
2022-08-27T10:08:41.869Z,8.57
2022-08-27T10:13:29.053Z,7.93
2022-08-27T10:15:53.252Z,8.60
2022-08-27T10:18:14.370Z,8.15
2022-08-27T10:20:35.283Z,8.30
2022-08-27T10:23:06.747Z,7.78
2022-08-27T10:25:30.838Z,7.90
2022-08-27T10:28:00.963Z,7.93
2022-08-27T10:30:25.950Z,7.30
2022-08-27T10:32:46.780Z,7.35
2022-08-27T10:35:13.087Z,7.32
2022-08-27T10:37:46.061Z,7.57
2022-08-27T10:40:09.043Z,6.70
2022-08-27T10:42:34.795Z,6.60
2022-08-27T10:44:56.136Z,6.95
2022-08-27T10:47:18.450Z,6.78
2022-08-27T10:49:40.703Z,6.80
2022-08-27T10:52:08.155Z,6.90
2022-08-27T10:54:26.594Z,6.18
2022-08-27T10:56:47.520Z,6.75
2022-08-27T10:59:24.179Z,5.97
2022-08-27T11:01:52.525Z,6.18
2022-08-27T11:04:22.813Z,6.22
2022-08-27T11:06:47.802Z,5.82
2022-08-27T11:09:14.970Z,6.75
2022-08-27T11:12:12.865Z,6.50
2022-08-27T11:14:28.534Z,5.78
2022-08-27T11:16:51.868Z,6.13
2022-08-27T11:19:15.789Z,6.95
2022-08-27T11:21:42.740Z,5.20
2022-08-27T11:24:03.306Z,5.43
2022-08-27T11:26:21.662Z,6.03
2022-08-27T11:28:45.187Z,6.40
2022-08-27T11:31:13.166Z,7.22
2022-08-27T11:33:37.090Z,6.53
2022-08-27T11:36:09.780Z,5.95
2022-08-27T11:38:30.851Z,5.78
2022-08-27T11:40:55.211Z,6.03
2022-08-27T11:43:17.548Z,5.88
2022-08-27T11:45:38.809Z,6.30
2022-08-27T11:47:58.472Z,6.97
2022-08-27T11:50:19.401Z,7.43
2022-08-27T11:52:40.040Z,7.82
2022-08-27T11:55:14.591Z,6.80
2022-08-27T11:57:34.277Z,7.38
2022-08-27T11:59:52.562Z,7.38
2022-08-27T12:02:13.350Z,7.57
2022-08-27T12:04:31.213Z,8.30
2022-08-27T12:07:16.911Z,7.55
2022-08-27T12:09:53.709Z,7.95
2022-08-27T12:12:26.357Z,7.68
2022-08-27T12:14:44.150Z,7.70
2022-08-27T12:17:06.097Z,8.07
2022-08-27T12:19:34.603Z,7.72
2022-08-27T12:22:05.098Z,7.50
2022-08-27T12:24:22.815Z,7.38
2022-08-27T12:26:43.409Z,7.60
2022-08-27T12:29:17.981Z,7.57
2022-08-27T12:31:36.473Z,6.18
2022-08-27T12:33:54.823Z,6.50
2022-08-27T12:36:28.018Z,6.00
2022-08-27T12:38:51.140Z,6.53
2022-08-27T12:41:09.440Z,7.00
2022-08-27T12:43:28.875Z,6.82
2022-08-27T12:45:49.217Z,6.80
2022-08-27T12:48:09.969Z,6.85
2022-08-27T12:50:30.621Z,6.70
2022-08-27T12:52:52.275Z,7.28
2022-08-27T12:55:14.668Z,7.05
2022-08-27T12:57:32.454Z,7.00
2022-08-27T12:59:59.238Z,6.93
2022-08-27T13:02:29.344Z,7.80
2022-08-27T13:04:48.148Z,8.88
2022-08-27T13:07:05.995Z,8.00
2022-08-27T13:09:31.585Z,7.80
2022-08-27T13:11:57.978Z,6.78
2022-08-27T13:14:17.866Z,7.70
2022-08-27T13:16:39.258Z,7.90
2022-08-27T13:18:58.103Z,8.32
2022-08-27T13:21:19.007Z,7.38
2022-08-27T13:23:37.021Z,6.53
2022-08-27T13:26:06.586Z,6.22
2022-08-27T13:28:27.161Z,6.28
2022-08-27T13:30:50.007Z,5.38
2022-08-27T13:33:09.006Z,5.78
2022-08-27T13:35:26.809Z,5.32
2022-08-27T13:37:46.627Z,4.80
2022-08-27T13:40:05.132Z,5.40
2022-08-27T13:42:24.981Z,5.30
2022-08-27T13:44:48.080Z,5.50
2022-08-27T13:47:15.057Z,4.50
2022-08-27T13:49:33.833Z,5.07
2022-08-27T13:52:03.675Z,5.22
2022-08-27T13:54:21.459Z,4.82
2022-08-27T13:56:49.162Z,4.32
2022-08-27T13:59:08.395Z,4.40
2022-08-27T14:01:29.838Z,4.85
2022-08-27T14:03:56.500Z,4.78
2022-08-27T14:06:24.799Z,4.70
2022-08-27T14:08:49.427Z,4.95
2022-08-27T14:11:08.646Z,5.18
2022-08-27T14:13:28.742Z,4.75
2022-08-27T14:15:47.864Z,5.00
2022-08-27T14:18:07.270Z,5.70
2022-08-27T14:20:25.646Z,5.10
2022-08-27T14:22:44.127Z,5.20
2022-08-27T14:25:02.199Z,5.95
2022-08-27T14:27:20.279Z,5.15
2022-08-27T14:29:38.343Z,5.30
2022-08-27T14:31:56.121Z,4.82
2022-08-27T14:34:14.826Z,4.45
2022-08-27T14:36:34.149Z,4.85
2022-08-27T14:38:52.690Z,5.88
2022-08-27T14:41:12.734Z,5.15
2022-08-27T14:43:31.644Z,5.07
2022-08-27T14:45:50.996Z,5.78
2022-08-27T14:48:11.227Z,5.30
2022-08-27T14:50:38.329Z,5.10
2022-08-27T14:52:56.059Z,5.50
2022-08-27T14:55:14.444Z,5.00
2022-08-27T14:57:32.351Z,4.60
2022-08-27T14:59:50.259Z,4.57
2022-08-27T15:02:11.346Z,4.57
2022-08-27T15:04:29.738Z,4.85
2022-08-27T15:06:47.533Z,4.78
2022-08-27T15:09:06.722Z,8.95
2022-08-27T15:11:25.995Z,8.60
2022-08-27T15:13:44.188Z,12.00
2022-08-27T15:16:02.176Z,9.85
2022-08-27T15:18:20.594Z,12.48
2022-08-27T15:20:39.395Z,11.05
2022-08-27T15:22:58.883Z,10.10
2022-08-27T15:25:17.104Z,9.77
2022-08-27T15:27:38.576Z,10.35
2022-08-27T15:29:56.692Z,10.00
2022-08-27T15:32:20.281Z,9.02
2022-08-27T15:34:40.373Z,8.63
2022-08-27T15:36:58.367Z,10.40
2022-08-27T15:39:16.253Z,9.30
2022-08-27T15:41:46.063Z,8.70
2022-08-27T15:44:12.389Z,10.20
2022-08-27T15:46:32.847Z,13.43
2022-08-27T15:48:50.746Z,13.35
2022-08-27T15:51:09.778Z,13.60
2022-08-27T15:53:27.542Z,14.88
2022-08-27T15:55:45.724Z,14.73
2022-08-27T15:58:04.420Z,15.02
2022-08-27T16:00:23.003Z,13.43
2022-08-27T16:02:42.418Z,15.18
2022-08-27T16:05:02.998Z,14.50
2022-08-27T16:07:21.400Z,15.30
2022-08-27T16:09:39.726Z,14.90
2022-08-27T16:11:58.576Z,15.13
2022-08-27T16:14:17.638Z,15.95
2022-08-27T16:16:35.496Z,15.88
2022-08-27T16:18:59.134Z,15.93
2022-08-27T16:21:17.091Z,15.88
2022-08-27T16:23:35.515Z,15.48
2022-08-27T16:25:53.742Z,16.35
2022-08-27T16:28:12.618Z,16.10
2022-08-27T16:30:31.029Z,14.60
2022-08-27T16:32:49.975Z,14.10
2022-08-27T16:35:09.403Z,16.25
2022-08-27T16:37:27.691Z,16.58
2022-08-27T16:39:45.511Z,16.27
2022-08-27T16:42:03.640Z,16.02
2022-08-27T16:44:21.365Z,15.73
2022-08-27T16:46:39.223Z,15.82
2022-08-27T16:49:15.712Z,17.27
2022-08-27T16:51:35.581Z,16.55
2022-08-27T16:53:53.769Z,16.58
2022-08-27T16:56:11.866Z,16.15
2022-08-27T16:58:32.308Z,16.42
2022-08-27T17:00:52.339Z,17.20
2022-08-27T17:03:10.773Z,17.00
2022-08-27T17:05:33.865Z,16.20
2022-08-27T17:07:52.838Z,16.35
2022-08-27T17:10:13.231Z,14.55
2022-08-27T17:12:31.315Z,13.60
2022-08-27T17:14:50.092Z,14.63
2022-08-27T17:17:09.522Z,14.85
2022-08-27T17:19:27.405Z,13.32
2022-08-27T17:21:45.692Z,12.68
2022-08-27T17:24:04.531Z,13.32
2022-08-27T17:26:29.210Z,13.63
2022-08-27T17:28:47.125Z,12.98
2022-08-27T17:31:05.044Z,14.30
2022-08-27T17:33:29.432Z,13.75
2022-08-27T17:35:47.292Z,13.38
2022-08-27T17:38:05.348Z,13.98
2022-08-27T17:40:23.705Z,13.30
2022-08-27T17:42:41.641Z,12.85
2022-08-27T17:45:00.198Z,12.98
2022-08-27T17:47:19.445Z,13.27
2022-08-27T17:49:37.554Z,13.15
2022-08-27T17:51:59.755Z,13.70
2022-08-27T17:54:40.431Z,12.85
2022-08-27T17:56:58.206Z,12.85
2022-08-27T17:59:16.083Z,13.02
2022-08-27T18:01:34.068Z,13.68
2022-08-27T18:03:52.157Z,13.65
2022-08-27T18:06:10.087Z,14.50
2022-08-27T18:08:27.880Z,14.23
2022-08-27T18:10:46.120Z,13.60
2022-08-27T18:13:04.567Z,12.85
2022-08-27T18:15:29.366Z,13.32
2022-08-27T18:17:47.243Z,14.52
2022-08-27T18:20:06.557Z,14.35
2022-08-27T18:22:26.574Z,13.10
2022-08-27T18:24:44.683Z,13.20
2022-08-27T18:27:03.447Z,12.50
2022-08-27T18:29:22.112Z,12.68
2022-08-27T18:31:41.256Z,12.77
2022-08-27T18:34:00.262Z,12.15
2022-08-27T18:36:19.333Z,12.48
2022-08-27T18:38:37.302Z,12.43
2022-08-27T18:40:55.831Z,12.88
2022-08-27T18:43:15.244Z,13.63
2022-08-27T18:45:37.132Z,13.45
2022-08-27T18:47:56.254Z,14.00
2022-08-27T18:50:17.763Z,12.45
2022-08-27T18:52:36.874Z,12.27
2022-08-27T18:54:55.713Z,11.82
2022-08-27T18:57:14.655Z,13.27
2022-08-27T18:59:33.176Z,13.23
2022-08-27T19:01:51.768Z,12.68
2022-08-27T19:04:11.706Z,13.15
2022-08-27T19:06:30.050Z,13.02
2022-08-27T19:08:49.143Z,13.27
2022-08-27T19:11:07.525Z,13.70
2022-08-27T19:13:26.958Z,12.90
2022-08-27T19:15:49.542Z,12.88
2022-08-27T19:18:09.679Z,12.95
2022-08-27T19:20:28.049Z,12.52
2022-08-27T19:22:47.517Z,12.30
2022-08-27T19:25:07.920Z,13.10
2022-08-27T19:27:26.683Z,12.52
2022-08-27T19:29:44.724Z,14.13
2022-08-27T19:32:03.171Z,13.38
2022-08-27T19:34:23.790Z,12.85
2022-08-27T19:36:43.121Z,14.00
2022-08-27T19:39:01.860Z,12.75
2022-08-27T19:41:27.716Z,12.40
2022-08-27T19:43:47.815Z,13.15
2022-08-27T19:46:07.503Z,13.02
2022-08-27T19:48:26.238Z,13.07
2022-08-27T19:50:45.607Z,12.57
2022-08-27T19:53:05.408Z,11.60
2022-08-27T19:55:23.962Z,11.40
2022-08-27T19:57:43.798Z,11.50
2022-08-27T20:00:01.701Z,11.07
2022-08-27T20:02:27.277Z,11.13
2022-08-27T20:05:07.436Z,10.93
2022-08-27T20:07:23.025Z,11.52
2022-08-27T20:09:42.465Z,10.43
2022-08-27T20:12:00.381Z,10.10
2022-08-27T20:14:18.877Z,9.65
2022-08-27T20:16:40.364Z,10.00
2022-08-27T20:19:00.578Z,10.27
2022-08-27T20:21:18.847Z,9.90
2022-08-27T20:23:36.969Z,10.80
2022-08-27T20:25:57.815Z,11.45
2022-08-27T20:28:38.217Z,11.40
2022-08-27T20:30:57.443Z,10.40
2022-08-27T20:33:15.287Z,11.35
2022-08-27T20:35:33.445Z,10.88
2022-08-27T20:37:51.497Z,11.00
2022-08-27T20:40:11.643Z,11.85
2022-08-27T20:42:29.733Z,11.13
2022-08-27T20:44:47.953Z,11.18
2022-08-27T20:47:06.029Z,11.35
2022-08-27T20:49:24.058Z,11.55
2022-08-27T20:51:53.517Z,11.02
2022-08-27T20:54:19.926Z,11.13
2022-08-27T20:56:38.637Z,12.60
2022-08-27T20:59:28.013Z,12.23
2022-08-27T21:01:46.055Z,12.20
2022-08-27T21:04:04.176Z,12.38
2022-08-27T21:06:26.319Z,11.13
2022-08-27T21:08:44.342Z,12.10
2022-08-27T21:11:02.096Z,11.55
2022-08-27T21:13:21.019Z,11.18
2022-08-27T21:15:38.833Z,11.75
2022-08-27T21:17:56.695Z,12.07
2022-08-27T21:20:14.553Z,11.23
2022-08-27T21:22:32.387Z,11.13
2022-08-27T21:24:50.555Z,11.50
2022-08-27T21:27:08.375Z,11.50
2022-08-27T21:29:26.177Z,11.23
2022-08-27T21:31:43.982Z,12.27
2022-08-27T21:34:01.922Z,12.30
2022-08-27T21:36:19.706Z,12.32
2022-08-27T21:38:37.581Z,12.32
2022-08-27T21:40:55.462Z,13.10
2022-08-27T21:43:13.483Z,12.45
2022-08-27T21:45:31.441Z,13.43
2022-08-27T21:47:49.316Z,12.80
2022-08-27T21:50:07.857Z,12.80
2022-08-27T21:52:25.651Z,12.88
2022-08-27T21:54:43.581Z,13.60
2022-08-27T21:57:03.121Z,12.93
2022-08-27T21:59:23.470Z,12.05
2022-08-27T22:01:41.379Z,13.43
2022-08-27T22:03:59.407Z,12.82
2022-08-27T22:06:17.593Z,14.02
2022-08-27T22:08:35.457Z,13.80
2022-08-27T22:10:55.229Z,13.40
2022-08-27T22:13:13.372Z,13.23
2022-08-27T22:15:31.461Z,13.50
2022-08-27T22:17:51.360Z,12.40
2022-08-27T22:20:09.623Z,13.25
2022-08-27T22:22:30.637Z,12.93
2022-08-27T22:24:48.775Z,13.73
2022-08-27T22:27:06.553Z,11.73
2022-08-27T22:29:24.652Z,12.13
2022-08-27T22:31:42.715Z,11.30
2022-08-27T22:34:01.220Z,11.45
2022-08-27T22:36:19.744Z,11.05
2022-08-27T22:38:37.537Z,11.05
2022-08-27T22:40:56.379Z,10.43
2022-08-27T22:43:15.898Z,10.25
2022-08-27T22:45:35.069Z,11.02
2022-08-27T22:47:54.064Z,11.00
2022-08-27T22:50:13.089Z,11.30
2022-08-27T22:52:31.078Z,11.52
2022-08-27T22:54:49.367Z,10.55
2022-08-27T22:57:13.032Z,10.20
2022-08-27T22:59:31.197Z,10.65
2022-08-27T23:01:49.150Z,10.32
2022-08-27T23:04:07.654Z,9.30
2022-08-27T23:06:25.849Z,9.38
2022-08-27T23:08:43.873Z,9.55
2022-08-27T23:11:03.397Z,9.43
2022-08-27T23:13:22.223Z,9.57
2022-08-27T23:15:40.836Z,9.43
2022-08-27T23:17:58.989Z,9.00
2022-08-27T23:20:17.480Z,9.35
2022-08-27T23:22:36.046Z,9.25
2022-08-27T23:25:12.560Z,8.30
2022-08-27T23:27:31.003Z,9.07
2022-08-27T23:29:49.029Z,8.50
2022-08-27T23:32:07.047Z,8.85
2022-08-27T23:34:25.362Z,8.88
2022-08-27T23:36:43.134Z,9.32
2022-08-27T23:39:00.967Z,9.13
2022-08-27T23:41:18.790Z,8.73
2022-08-27T23:43:36.591Z,8.68
2022-08-27T23:45:54.464Z,8.90
2022-08-27T23:48:13.125Z,8.75
2022-08-27T23:50:34.330Z,9.52
2022-08-27T23:52:52.445Z,9.45
2022-08-27T23:55:12.753Z,9.02
2022-08-27T23:57:31.331Z,9.00
2022-08-27T23:59:49.281Z,8.75
